Time;durP1;ratioP1;P1;durP2;ratioP2;P2;SDS_P1;SDS_P2;PMS_P1;PMS_P2;Temp;Humidity;BMP_temperature;BMP_pressure;BME280_temperature;BME280_humidity;BME280_pressure;Samples;Min_cycle;Max_cycle;Signal;HPM_P1;HPM_P2
2023/04/12 00:02:20;;;;;;;6.95;2.03;;;7.90;99.90;;;;;;5037496;28;20520;-72
2023/04/12 00:04:48;;;;;;;9.30;1.67;;;8.00;99.90;;;;;;5063364;28;20049;-73
2023/04/12 00:07:13;;;;;;;4.07;1.67;;;8.00;99.90;;;;;;5062760;28;20037;-73
2023/04/12 00:09:39;;;;;;;6.63;1.47;;;8.00;99.90;;;;;;5030889;28;20047;-73
2023/04/12 00:12:05;;;;;;;4.53;1.53;;;8.10;99.90;;;;;;5059575;28;20043;-72
2023/04/12 00:14:31;;;;;;;7.47;1.27;;;8.10;99.90;;;;;;5048145;28;20056;-72
2023/04/12 00:16:56;;;;;;;5.00;1.60;;;8.20;99.90;;;;;;5044630;28;20036;-73
2023/04/12 00:19:24;;;;;;;5.17;1.73;;;8.20;99.90;;;;;;5061566;28;20097;-72
2023/04/12 00:21:50;;;;;;;14.95;1.70;;;8.20;99.90;;;;;;5044209;28;20123;-73
2023/04/12 00:24:15;;;;;;;9.27;1.50;;;8.30;99.90;;;;;;5051880;28;20552;-72
2023/04/12 00:26:41;;;;;;;5.53;1.40;;;8.30;99.90;;;;;;5041735;28;20044;-72
2023/04/12 00:29:07;;;;;;;7.80;2.67;;;8.30;99.90;;;;;;5042328;28;20290;-72
2023/04/12 00:31:32;;;;;;;5.87;1.20;;;8.40;99.90;;;;;;5040109;28;20074;-73
2023/04/12 00:34:01;;;;;;;7.83;1.90;;;8.40;99.90;;;;;;5042389;28;20044;-73
2023/04/12 00:36:27;;;;;;;5.55;1.55;;;8.40;99.90;;;;;;5041268;28;20582;-72
2023/04/12 00:38:52;;;;;;;3.53;1.33;;;8.40;99.90;;;;;;5030321;28;20075;-73
2023/04/12 00:41:18;;;;;;;5.37;1.90;;;8.40;99.90;;;;;;5043453;28;20036;-72
2023/04/12 00:43:43;;;;;;;4.07;1.23;;;8.50;99.90;;;;;;5043657;28;20143;-72
2023/04/12 00:46:11;;;;;;;7.37;1.93;;;8.50;99.90;;;;;;5038464;28;20071;-73
2023/04/12 00:48:37;;;;;;;4.35;1.35;;;8.60;99.90;;;;;;5041700;28;20209;-72
2023/04/12 00:51:04;;;;;;;8.45;1.85;;;8.50;99.90;;;;;;5045250;28;20347;-73
2023/04/12 00:53:31;;;;;;;7.75;1.52;;;8.50;99.90;;;;;;5061117;28;20621;-73
2023/04/12 00:55:57;;;;;;;5.30;1.60;;;8.50;99.90;;;;;;5040802;28;20060;-73
2023/04/12 00:58:23;;;;;;;5.18;1.70;;;8.50;99.90;;;;;;5046281;28;20052;-73
2023/04/12 01:00:51;;;;;;;4.70;1.87;;;8.50;99.90;;;;;;5039207;28;20127;-73
2023/04/12 01:03:21;;;;;;;5.05;1.45;;;8.50;99.90;;;;;;5031323;28;20301;-72
2023/04/12 01:06:14;;;;;;;3.38;1.58;;;8.50;99.90;;;;;;5029736;28;20569;-72
2023/04/12 01:09:00;;;;;;;5.00;1.48;;;8.40;99.90;;;;;;5042926;28;20110;-72
2023/04/12 01:11:32;;;;;;;4.25;1.40;;;8.50;99.90;;;;;;5062037;28;20093;-72
2023/04/12 01:14:10;;;;;;;9.13;1.55;;;8.50;99.90;;;;;;5038656;28;20055;-72
2023/04/12 01:16:49;;;;;;;9.57;1.92;;;8.50;99.90;;;;;;5020839;28;20285;-72
2023/04/12 01:19:32;;;;;;;4.97;1.50;;;8.50;99.90;;;;;;5026860;28;20076;-72
2023/04/12 01:22:40;;;;;;;5.65;1.20;;;8.50;99.90;;;;;;5044294;28;20480;-72
2023/04/12 01:25:51;;;;;;;12.23;1.85;;;8.50;99.90;;;;;;5044013;28;20053;-72
2023/04/12 01:28:27;;;;;;;5.53;2.10;;;8.40;99.90;;;;;;5058725;28;20123;-73
2023/04/12 01:30:53;;;;;;;5.32;1.45;;;8.40;99.90;;;;;;5041470;28;20200;-72
2023/04/12 01:33:20;;;;;;;4.53;1.35;;;8.40;99.90;;;;;;5042416;28;20389;-72
2023/04/12 01:35:48;;;;;;;6.15;1.70;;;8.40;99.90;;;;;;5049830;28;20048;-72
2023/04/12 01:38:17;;;;;;;4.38;1.52;;;8.40;99.90;;;;;;5046530;28;20384;-72
2023/04/12 01:40:43;;;;;;;6.85;1.67;;;8.40;99.90;;;;;;5047324;28;20124;-72
2023/04/12 01:43:10;;;;;;;6.07;1.60;;;8.40;99.90;;;;;;5045145;28;20520;-73
2023/04/12 01:45:36;;;;;;;7.25;1.88;;;8.40;99.90;;;;;;5043282;28;20685;-72
2023/04/12 01:48:08;;;;;;;7.68;2.25;;;8.40;99.90;;;;;;5044411;28;20049;-72
2023/04/12 01:50:52;;;;;;;5.75;1.85;;;8.40;99.90;;;;;;5048362;28;20045;-72
2023/04/12 01:53:28;;;;;;;5.43;1.23;;;8.40;99.90;;;;;;5033017;28;20984;-72
2023/04/12 01:55:58;;;;;;;5.25;1.67;;;8.40;99.90;;;;;;5026212;28;20048;-72
2023/04/12 01:58:25;;;;;;;7.68;1.88;;;8.40;99.90;;;;;;5052608;28;20048;-72
2023/04/12 02:00:51;;;;;;;;;;;8.40;99.90;;;;;;5049629;28;20505;-72
2023/04/12 02:03:20;;;;;;;5.90;1.40;;;8.40;99.90;;;;;;5047773;28;19966;-72
2023/04/12 02:05:46;;;;;;;8.90;1.38;;;8.40;99.90;;;;;;5039419;28;20141;-72
2023/04/12 02:10:42;;;;;;;4.90;1.60;;;8.40;99.90;;;;;;5029276;28;20076;-69
2023/04/12 02:13:08;;;;;;;4.13;1.08;;;8.40;99.90;;;;;;5021148;28;20266;-68
2023/04/12 02:15:33;;;;;;;6.13;1.50;;;8.40;99.90;;;;;;5015845;28;20341;-69
2023/04/12 02:18:00;;;;;;;5.15;1.50;;;8.40;99.90;;;;;;4998786;28;20450;-67
2023/04/12 02:20:26;;;;;;;5.70;2.00;;;8.40;99.90;;;;;;5026134;28;20054;-67
2023/04/12 02:22:52;;;;;;;7.90;1.70;;;8.40;99.90;;;;;;5020634;28;20517;-67
2023/04/12 02:25:18;;;;;;;4.88;1.60;;;8.40;99.90;;;;;;5014933;28;20095;-68
2023/04/12 02:27:45;;;;;;;4.13;1.17;;;8.40;99.90;;;;;;5005566;28;20057;-67
2023/04/12 02:30:11;;;;;;;4.88;1.05;;;8.50;99.90;;;;;;5031374;28;20041;-67
2023/04/12 02:32:42;;;;;;;8.07;1.77;;;8.50;99.90;;;;;;5032247;28;20038;-68
2023/04/12 02:35:09;;;;;;;5.18;1.42;;;8.50;99.90;;;;;;5028335;28;20042;-68
2023/04/12 02:37:35;;;;;;;3.72;1.50;;;8.50;99.90;;;;;;5012692;28;20491;-67
2023/04/12 02:40:03;;;;;;;;;;;8.40;99.90;;;;;;5023973;28;20423;-67
2023/04/12 02:42:29;;;;;;;6.07;1.17;;;8.50;99.90;;;;;;5013982;28;19917;-67
2023/04/12 02:44:54;;;;;;;4.17;1.30;;;8.50;99.90;;;;;;5029097;28;20411;-68
2023/04/12 02:47:20;;;;;;;7.40;1.77;;;8.50;99.90;;;;;;5030628;28;20045;-67
2023/04/12 02:49:45;;;;;;;3.67;1.63;;;8.50;99.90;;;;;;5001757;28;20068;-67
2023/04/12 02:52:11;;;;;;;4.97;1.20;;;8.50;99.90;;;;;;5029413;28;20032;-67
2023/04/12 02:54:37;;;;;;;4.03;1.20;;;8.50;99.90;;;;;;5012420;28;20272;-67
2023/04/12 02:57:03;;;;;;;3.80;1.27;;;8.50;99.90;;;;;;5026688;28;20100;-67
2023/04/12 02:59:29;;;;;;;4.57;1.88;;;8.50;99.90;;;;;;5010031;28;20527;-69
2023/04/12 03:01:55;;;;;;;3.60;1.08;;;8.50;99.90;;;;;;5018623;28;20081;-68
2023/04/12 03:04:21;;;;;;;2.30;1.40;;;8.50;99.90;;;;;;5019124;28;20480;-67
2023/04/12 03:06:52;;;;;;;6.00;1.70;;;8.50;99.90;;;;;;5024154;28;20181;-67
2023/04/12 03:09:19;;;;;;;5.40;1.55;;;8.40;99.90;;;;;;5021472;28;20278;-68
2023/04/12 03:11:45;;;;;;;5.90;1.35;;;8.40;99.90;;;;;;5030133;28;20064;-68
2023/04/12 03:14:11;;;;;;;4.70;1.38;;;8.50;99.90;;;;;;5031552;28;20045;-68
2023/04/12 03:16:37;;;;;;;4.43;1.20;;;8.50;99.90;;;;;;5012966;28;20041;-67
2023/04/12 03:19:03;;;;;;;2.30;1.00;;;8.50;99.90;;;;;;5029745;28;20069;-67
2023/04/12 03:21:28;;;;;;;3.78;1.30;;;8.40;99.90;;;;;;5011671;28;20103;-67
2023/04/12 03:23:54;;;;;;;4.23;1.10;;;8.50;99.90;;;;;;5019870;28;20104;-68
2023/04/12 03:26:19;;;;;;;2.37;1.30;;;8.40;99.90;;;;;;5019116;28;20033;-68
2023/04/12 03:28:46;;;;;;;7.20;1.33;;;8.40;99.90;;;;;;5017715;28;20136;-67
2023/04/12 03:31:12;;;;;;;;;;;8.40;99.90;;;;;;5025841;28;20042;-68
2023/04/12 03:33:37;;;;;;;6.20;1.15;;;8.40;99.90;;;;;;5018229;28;20397;-68
2023/04/12 03:36:04;;;;;;;5.93;1.70;;;8.40;99.90;;;;;;4999415;28;20544;-67
2023/04/12 03:38:30;;;;;;;3.92;1.20;;;8.40;99.90;;;;;;5019070;28;20049;-67
2023/04/12 03:40:55;;;;;;;5.43;1.58;;;8.40;99.90;;;;;;5025490;28;20049;-68
2023/04/12 03:43:21;;;;;;;4.27;1.53;;;8.30;99.90;;;;;;5008565;28;20525;-68
2023/04/12 03:45:47;;;;;;;6.40;1.40;;;8.40;99.90;;;;;;5022544;28;20041;-68
2023/04/12 03:48:12;;;;;;;6.07;1.80;;;8.40;99.90;;;;;;5026952;28;20057;-67
2023/04/12 03:50:47;;;;;;;5.90;2.30;;;8.40;99.90;;;;;;5027355;28;20033;-67
2023/04/12 03:53:13;;;;;;;5.72;2.03;;;8.30;99.90;;;;;;5014784;28;20334;-67
2023/04/12 03:55:39;;;;;;;6.82;1.67;;;8.30;99.90;;;;;;5021292;28;20033;-68
2023/04/12 03:58:05;;;;;;;3.97;1.98;;;8.30;99.90;;;;;;5012902;28;20080;-68
2023/04/12 04:00:30;;;;;;;3.30;1.30;;;8.30;99.90;;;;;;5019385;28;20073;-68
2023/04/12 04:03:02;;;;;;;3.97;1.57;;;8.30;99.90;;;;;;5014549;28;20092;-68
2023/04/12 04:05:29;;;;;;;4.95;0.98;;;8.20;99.90;;;;;;5025324;28;20045;-68
2023/04/12 04:07:59;;;;;;;3.00;1.10;;;8.30;99.90;;;;;;5016701;28;20045;-68
2023/04/12 04:10:27;;;;;;;6.20;1.40;;;8.20;99.90;;;;;;5022585;28;20045;-68
2023/04/12 04:12:53;;;;;;;4.03;1.00;;;8.30;99.90;;;;;;5021999;28;20103;-67
2023/04/12 04:15:21;;;;;;;4.57;1.15;;;8.20;99.90;;;;;;5024511;28;20450;-68
2023/04/12 04:17:48;;;;;;;3.25;0.80;;;8.20;99.90;;;;;;5021772;28;20045;-67
2023/04/12 04:20:13;;;;;;;3.92;1.10;;;8.20;99.90;;;;;;5023146;28;20041;-68
2023/04/12 04:22:41;;;;;;;5.20;0.90;;;8.20;99.90;;;;;;5017164;28;20513;-69
2023/04/12 04:25:07;;;;;;;4.32;1.15;;;8.20;99.90;;;;;;5021908;28;20073;-68
2023/04/12 04:27:33;;;;;;;5.30;1.30;;;8.20;99.90;;;;;;5018035;28;20110;-68
2023/04/12 04:30:03;;;;;;;6.43;1.45;;;8.20;99.90;;;;;;5023698;28;20052;-68
2023/04/12 04:32:30;;;;;;;1.88;0.80;;;8.20;99.90;;;;;;5024380;28;20045;-68
2023/04/12 04:34:58;;;;;;;;;;;8.20;99.90;;;;;;5022690;28;20516;-68
2023/04/12 04:37:25;;;;;;;5.30;0.98;;;8.20;99.90;;;;;;4999967;28;20378;-68
2023/04/12 04:39:50;;;;;;;7.50;1.38;;;8.10;99.90;;;;;;5020259;28;20446;-69
2023/04/12 04:42:16;;;;;;;5.10;1.10;;;8.10;99.90;;;;;;5010239;28;20049;-68
2023/04/12 04:44:42;;;;;;;3.47;1.40;;;8.10;99.90;;;;;;5017788;28;20294;-69
2023/04/12 04:47:08;;;;;;;2.85;1.20;;;8.10;99.90;;;;;;5020431;28;20099;-69
2023/04/12 04:49:35;;;;;;;5.20;1.77;;;8.10;99.90;;;;;;5013403;28;20060;-69
2023/04/12 04:52:01;;;;;;;5.22;1.20;;;8.00;99.90;;;;;;5017550;28;20447;-69
2023/04/12 04:54:27;;;;;;;2.05;1.00;;;8.00;99.90;;;;;;5004987;28;20081;-69
2023/04/12 04:56:52;;;;;;;4.63;1.50;;;8.00;99.90;;;;;;5017289;28;20045;-69
2023/04/12 04:59:18;;;;;;;8.37;1.53;;;8.00;99.90;;;;;;4999999;28;20099;-69
2023/04/12 05:01:44;;;;;;;4.10;1.40;;;8.00;99.90;;;;;;5015788;28;20161;-69
2023/04/12 05:04:10;;;;;;;3.00;1.35;;;8.00;99.90;;;;;;5007520;28;20053;-69
2023/04/12 05:06:38;;;;;;;4.20;1.60;;;8.00;99.90;;;;;;5004328;28;20045;-69
2023/04/12 05:09:04;;;;;;;3.97;1.58;;;8.00;99.90;;;;;;5019094;28;20392;-69
2023/04/12 05:11:32;;;;;;;5.97;1.60;;;8.00;99.90;;;;;;5020202;28;20679;-69
2023/04/12 05:13:58;;;;;;;3.00;1.70;;;8.00;99.90;;;;;;5018709;28;20398;-69
2023/04/12 05:16:23;;;;;;;7.37;2.30;;;7.90;99.90;;;;;;5016301;28;20037;-69
2023/04/12 05:18:49;;;;;;;6.33;2.30;;;8.00;99.90;;;;;;5021586;28;20080;-69
2023/04/12 05:21:14;;;;;;;4.37;2.37;;;8.00;99.90;;;;;;5014592;28;20042;-69
2023/04/12 05:23:45;;;;;;;5.77;3.17;;;8.00;99.90;;;;;;5020003;28;20049;-69
2023/04/12 05:26:10;;;;;;;6.68;3.00;;;7.90;99.90;;;;;;5016962;28;20037;-69
2023/04/12 05:28:36;;;;;;;7.80;3.50;;;7.90;99.90;;;;;;5019273;28;20298;-68
2023/04/12 05:31:02;;;;;;;8.03;2.90;;;7.90;99.90;;;;;;5023235;28;20045;-68
2023/04/12 05:33:27;;;;;;;12.20;3.50;;;7.90;99.90;;;;;;5018993;28;20499;-69
2023/04/12 05:35:53;;;;;;;5.17;3.20;;;7.90;99.90;;;;;;5018114;28;20049;-69
2023/04/12 05:38:19;;;;;;;5.83;3.50;;;7.90;99.90;;;;;;5019002;28;20038;-69
2023/04/12 05:40:44;;;;;;;9.17;4.03;;;7.90;99.90;;;;;;5019306;28;20521;-69
2023/04/12 05:43:11;;;;;;;8.00;4.30;;;7.90;99.90;;;;;;5012576;28;20041;-69
2023/04/12 05:45:38;;;;;;;8.85;4.40;;;7.90;99.90;;;;;;5014391;28;20091;-70
2023/04/12 05:48:04;;;;;;;10.25;4.25;;;7.90;99.90;;;;;;5007465;28;21814;-75
2023/04/12 05:50:29;;;;;;;7.85;4.32;;;7.90;99.90;;;;;;5008815;28;20279;-69
2023/04/12 05:52:55;;;;;;;8.63;4.10;;;7.90;99.90;;;;;;5015032;28;20544;-68
2023/04/12 05:55:21;;;;;;;7.07;3.63;;;7.90;99.90;;;;;;5013499;28;20037;-72
2023/04/12 05:57:46;;;;;;;7.07;4.37;;;7.90;99.90;;;;;;5003182;28;20042;-70
2023/04/12 06:00:15;;;;;;;12.37;4.63;;;7.90;99.90;;;;;;5014838;28;20366;-71
2023/04/12 06:02:41;;;;;;;12.68;4.40;;;7.90;99.90;;;;;;5011999;28;20045;-71
2023/04/12 06:05:08;;;;;;;9.40;4.93;;;7.90;99.90;;;;;;5020104;28;20415;-80
2023/04/12 06:07:33;;;;;;;;;;;7.90;99.90;;;;;;5010823;28;20352;-71
2023/04/12 06:09:59;;;;;;;7.05;3.10;;;7.90;99.90;;;;;;5024914;28;20217;-68
2023/04/12 06:12:25;;;;;;;10.45;3.80;;;7.90;99.90;;;;;;5017242;28;20061;-69
2023/04/12 06:14:51;;;;;;;9.53;4.33;;;7.90;99.90;;;;;;5012692;28;20158;-68
2023/04/12 06:17:17;;;;;;;8.67;3.77;;;8.00;99.90;;;;;;5010767;28;20140;-68
2023/04/12 06:19:42;;;;;;;7.67;3.93;;;7.90;99.90;;;;;;5020720;28;20048;-68
2023/04/12 06:22:08;;;;;;;6.60;3.50;;;8.00;99.90;;;;;;5009454;28;20053;-68
2023/04/12 06:24:34;;;;;;;8.23;4.00;;;7.90;99.90;;;;;;5011777;28;20518;-68
2023/04/12 06:27:02;;;;;;;9.67;3.63;;;7.90;99.90;;;;;;5018895;28;20049;-68
2023/04/12 06:29:28;;;;;;;9.82;3.60;;;7.90;99.90;;;;;;5024661;28;20632;-68
2023/04/12 06:31:53;;;;;;;7.77;3.50;;;7.90;99.90;;;;;;5019578;28;20038;-68
2023/04/12 06:34:19;;;;;;;3.30;2.40;;;7.90;99.90;;;;;;5020501;28;20128;-68
2023/04/12 06:36:46;;;;;;;6.43;2.80;;;7.90;99.90;;;;;;5014756;28;20049;-68
2023/04/12 06:39:12;;;;;;;11.02;2.90;;;8.00;99.90;;;;;;5012725;28;20064;-68
2023/04/12 06:41:38;;;;;;;4.53;2.75;;;8.00;99.90;;;;;;5018637;28;20049;-70
2023/04/12 06:44:04;;;;;;;6.47;2.73;;;7.90;99.90;;;;;;5022090;28;20045;-68
2023/04/12 06:46:30;;;;;;;5.67;2.83;;;7.90;99.90;;;;;;5017506;28;20072;-68
2023/04/12 06:48:56;;;;;;;6.45;3.08;;;7.90;99.90;;;;;;5020912;28;20099;-67
2023/04/12 06:51:21;;;;;;;6.10;2.77;;;7.90;99.90;;;;;;5013767;28;20045;-66
2023/04/12 06:53:47;;;;;;;5.53;3.00;;;8.00;99.90;;;;;;5019082;28;20054;-67
2023/04/12 06:56:13;;;;;;;6.20;2.70;;;7.90;99.90;;;;;;5018163;28;20281;-68
2023/04/12 06:58:38;;;;;;;7.90;3.07;;;8.00;99.90;;;;;;5013439;28;20030;-67
2023/04/12 07:01:05;;;;;;;7.20;3.37;;;8.00;99.90;;;;;;5023543;28;20045;-67
2023/04/12 07:03:32;;;;;;;10.07;3.35;;;8.00;99.90;;;;;;5017109;28;20048;-67
2023/04/12 07:06:01;;;;;;;3.95;2.72;;;8.00;99.90;;;;;;5014334;28;20049;-67
2023/04/12 07:08:28;;;;;;;4.88;3.60;;;8.00;99.90;;;;;;5017485;28;20179;-67
2023/04/12 07:10:54;;;;;;;4.72;3.00;;;8.00;99.90;;;;;;5021486;28;20047;-67
2023/04/12 07:13:21;;;;;;;4.25;2.97;;;8.00;99.90;;;;;;5019147;28;20045;-67
2023/04/12 07:15:47;;;;;;;4.13;2.80;;;8.00;99.90;;;;;;5023852;28;20137;-67
2023/04/12 07:18:13;;;;;;;;;;;8.00;99.90;;;;;;5021364;28;20050;-67
2023/04/12 07:20:39;;;;;;;6.80;2.80;;;8.00;99.90;;;;;;5027247;28;19929;-67
2023/04/12 07:23:04;;;;;;;5.53;2.97;;;8.00;99.90;;;;;;5022162;28;20432;-67
2023/04/12 07:25:30;;;;;;;4.93;2.97;;;8.00;99.90;;;;;;5023585;28;20050;-67
2023/04/12 07:27:56;;;;;;;4.50;3.27;;;8.00;99.90;;;;;;5019395;28;20056;-67
2023/04/12 07:30:22;;;;;;;4.47;3.00;;;8.00;99.90;;;;;;5013750;28;20784;-67
2023/04/12 07:32:47;;;;;;;5.43;3.55;;;8.10;99.90;;;;;;5022802;28;20037;-67
2023/04/12 07:35:13;;;;;;;5.90;3.37;;;8.10;99.90;;;;;;5018928;28;20037;-67
2023/04/12 07:37:39;;;;;;;4.90;3.08;;;8.10;99.90;;;;;;5024036;28;20460;-67
2023/04/12 07:40:06;;;;;;;6.10;3.15;;;8.10;99.90;;;;;;5021627;28;20506;-67
2023/04/12 07:42:31;;;;;;;7.05;3.38;;;8.10;99.90;;;;;;5024895;28;20041;-67
2023/04/12 07:44:57;;;;;;;4.17;2.93;;;8.10;99.90;;;;;;5025771;28;20076;-67
2023/04/12 07:47:23;;;;;;;5.63;3.07;;;8.20;99.90;;;;;;5016581;28;20118;-66
2023/04/12 07:49:48;;;;;;;6.30;3.33;;;8.20;99.90;;;;;;5022394;28;20049;-67
2023/04/12 07:52:14;;;;;;;4.07;2.83;;;8.20;99.90;;;;;;5017085;28;21105;-66
2023/04/12 07:54:40;;;;;;;4.20;2.87;;;8.20;99.90;;;;;;5027018;28;20107;-67
2023/04/12 07:57:07;;;;;;;5.45;3.33;;;8.20;99.90;;;;;;5021735;28;20091;-66
2023/04/12 07:59:33;;;;;;;4.78;3.30;;;8.20;99.90;;;;;;5014322;28;20140;-67
2023/04/12 08:01:59;;;;;;;4.95;3.70;;;8.20;99.90;;;;;;5020325;28;20128;-67
2023/04/12 08:04:27;;;;;;;4.30;2.70;;;8.20;99.90;;;;;;5028225;28;20045;-67
2023/04/12 08:06:53;;;;;;;4.53;2.75;;;8.30;99.90;;;;;;5034980;22;20228;-69
2023/04/12 08:09:19;;;;;;;3.90;2.83;;;8.30;99.90;;;;;;5021123;28;20075;-70
2023/04/12 08:11:46;;;;;;;4.18;3.33;;;8.30;99.90;;;;;;4998080;28;20434;-69
2023/04/12 08:14:12;;;;;;;3.88;2.75;;;8.30;99.90;;;;;;4999581;28;20350;-69
2023/04/12 08:16:37;;;;;;;7.13;2.85;;;8.30;99.90;;;;;;5009110;28;20037;-70
2023/04/12 08:19:03;;;;;;;4.30;2.67;;;8.40;99.90;;;;;;5000476;28;20081;-69
2023/04/12 08:21:29;;;;;;;4.45;2.58;;;8.40;99.90;;;;;;5013205;28;20073;-69
2023/04/12 08:23:55;;;;;;;3.67;2.35;;;8.40;99.90;;;;;;5014229;28;20483;-69
2023/04/12 08:26:21;;;;;;;3.53;2.13;;;8.30;99.90;;;;;;5003184;28;20041;-70
2023/04/12 08:28:47;;;;;;;6.53;2.45;;;8.40;99.90;;;;;;5011641;28;20046;-69
2023/04/12 08:31:14;;;;;;;3.45;2.15;;;8.40;99.90;;;;;;5019318;28;20094;-69
2023/04/12 08:33:39;;;;;;;;;;;8.40;99.90;;;;;;5009637;28;20541;-70
2023/04/12 08:36:06;;;;;;;3.13;2.10;;;8.40;99.90;;;;;;5008294;28;20216;-70
2023/04/12 08:38:32;;;;;;;3.08;1.90;;;8.40;99.90;;;;;;5000797;28;20042;-70
2023/04/12 08:40:58;;;;;;;3.93;1.73;;;8.50;99.90;;;;;;5009861;28;20045;-70
2023/04/12 08:43:28;;;;;;;3.55;2.08;;;8.50;99.90;;;;;;4995360;28;20048;-70
2023/04/12 08:45:55;;;;;;;3.65;2.03;;;8.50;99.90;;;;;;5003112;28;20053;-69
2023/04/12 08:48:21;;;;;;;2.72;1.75;;;8.50;99.90;;;;;;4999072;28;20064;-70
2023/04/12 08:50:48;;;;;;;3.17;2.10;;;8.60;99.90;;;;;;4984304;28;20073;-70
2023/04/12 08:53:14;;;;;;;3.22;1.85;;;8.70;99.90;;;;;;5001355;28;20045;-74
2023/04/12 08:55:46;;;;;;;3.60;2.00;;;8.70;99.90;;;;;;4988967;28;20095;-70
2023/04/12 08:58:14;;;;;;;4.53;1.80;;;8.80;99.90;;;;;;5010151;28;20296;-71
2023/04/12 09:00:41;;;;;;;3.30;1.73;;;8.90;99.90;;;;;;4996140;28;20033;-70
2023/04/12 09:03:09;;;;;;;3.50;1.60;;;9.00;99.90;;;;;;4981860;28;20566;-70
2023/04/12 09:05:35;;;;;;;7.03;1.88;;;9.20;99.90;;;;;;5002754;28;20516;-70
2023/04/12 09:08:01;;;;;;;3.80;1.87;;;9.20;99.90;;;;;;5004765;28;20057;-70
2023/04/12 09:10:35;;;;;;;3.65;2.00;;;9.30;99.90;;;;;;4995946;28;20041;-70
2023/04/12 09:13:02;;;;;;;6.78;1.90;;;9.40;99.90;;;;;;5006275;28;20131;-70
2023/04/12 09:15:29;;;;;;;4.35;1.80;;;9.50;99.90;;;;;;5026091;28;20481;-70
2023/04/12 09:18:22;;;;;;;4.72;2.15;;;9.70;99.90;;;;;;4992108;28;20057;-70
2023/04/12 09:20:47;;;;;;;3.33;1.77;;;9.80;99.90;;;;;;4998567;28;20412;-70
2023/04/12 09:23:18;;;;;;;3.20;1.73;;;9.90;99.90;;;;;;5000854;28;20045;-70
2023/04/12 09:25:46;;;;;;;5.30;2.10;;;10.10;99.90;;;;;;5017162;28;20592;-70
2023/04/12 09:28:21;;;;;;;6.75;1.90;;;10.10;99.90;;;;;;4999782;28;20132;-70
2023/04/12 09:30:50;;;;;;;4.45;2.47;;;10.10;99.90;;;;;;5000308;28;20548;-70
2023/04/12 09:33:18;;;;;;;5.13;1.80;;;10.20;99.90;;;;;;4994473;28;20052;-70
2023/04/12 09:35:44;;;;;;;7.07;1.90;;;10.20;99.90;;;;;;4995952;28;20046;-70
2023/04/12 09:38:10;;;;;;;7.32;2.25;;;10.40;99.90;;;;;;4997995;28;20048;-70
2023/04/12 09:40:37;;;;;;;4.40;1.90;;;10.40;99.90;;;;;;4999690;28;20049;-70
2023/04/12 09:43:03;;;;;;;5.90;1.70;;;10.50;99.90;;;;;;4992023;28;20041;-70
2023/04/12 09:45:31;;;;;;;10.65;1.90;;;10.70;99.90;;;;;;5001628;28;20579;-70
2023/04/12 09:47:56;;;;;;;3.60;1.50;;;10.80;99.90;;;;;;5000453;28;20042;-70
2023/04/12 09:50:27;;;;;;;7.72;2.70;;;11.00;99.90;;;;;;4990088;28;20413;-70
2023/04/12 09:52:57;;;;;;;10.23;2.75;;;11.20;99.90;;;;;;4985778;28;20086;-70
2023/04/12 09:55:24;;;;;;;12.15;1.95;;;11.50;99.90;;;;;;5002723;28;20531;-70
2023/04/12 09:57:51;;;;;;;9.13;2.00;;;11.70;99.90;;;;;;5001297;28;20094;-69
2023/04/12 10:00:17;;;;;;;6.75;2.35;;;11.80;99.90;;;;;;4990746;28;20402;-69
2023/04/12 10:02:48;;;;;;;8.70;2.22;;;11.90;99.90;;;;;;5000705;28;20038;-69
2023/04/12 10:05:16;;;;;;;10.43;1.67;;;12.00;99.90;;;;;;5012274;28;20052;-69
2023/04/12 10:07:44;;;;;;;6.65;2.17;;;12.20;99.90;;;;;;4997676;28;20042;-69
2023/04/12 10:10:14;;;;;;;10.35;2.13;;;12.30;99.90;;;;;;4998930;28;20042;-69
2023/04/12 10:12:41;;;;;;;11.82;2.60;;;12.50;99.90;;;;;;5002096;28;20040;-69
2023/04/12 10:15:19;;;;;;;5.65;1.65;;;12.70;99.90;;;;;;4993409;28;20064;-68
2023/04/12 10:17:49;;;;;;;7.80;1.80;;;12.80;99.90;;;;;;5025681;28;20104;-68
2023/04/12 10:20:17;;;;;;;10.32;1.52;;;13.00;99.90;;;;;;5020222;28;20398;-68
2023/04/12 10:22:45;;;;;;;5.82;1.25;;;13.10;99.90;;;;;;4996328;28;20064;-69
2023/04/12 10:25:12;;;;;;;7.45;1.65;;;13.20;99.90;;;;;;4998802;28;20103;-74
2023/04/12 10:27:43;;;;;;;7.38;1.60;;;13.20;99.90;;;;;;5001986;28;20558;-68
2023/04/12 10:30:35;;;;;;;10.45;2.22;;;13.20;99.90;;;;;;4994656;28;20037;-68
2023/04/12 10:33:04;;;;;;;7.57;2.10;;;13.30;99.90;;;;;;4998446;28;20132;-68
2023/04/12 10:35:59;;;;;;;14.32;1.45;;;13.30;99.90;;;;;;4999781;28;20072;-68
2023/04/12 10:38:26;;;;;;;8.38;2.05;;;13.40;99.90;;;;;;5001210;28;20719;-68
2023/04/12 10:41:20;;;;;;;5.82;1.58;;;13.30;99.90;;;;;;4987712;28;20042;-68
2023/04/12 10:43:46;;;;;;;7.78;1.85;;;13.40;99.90;;;;;;5009734;28;20302;-68
2023/04/12 10:46:44;;;;;;;11.40;2.17;;;13.40;99.90;;;;;;4995822;28;20586;-68
2023/04/12 10:49:11;;;;;;;;;;;13.40;99.90;;;;;;5010992;28;20499;-68
2023/04/12 10:51:36;;;;;;;12.73;2.53;;;13.30;99.90;;;;;;5005267;28;20393;-68
2023/04/12 10:54:17;;;;;;;12.40;2.42;;;13.20;99.90;;;;;;5019463;28;20045;-68
2023/04/12 10:56:44;;;;;;;9.65;1.42;;;13.10;99.90;;;;;;5007596;28;20033;-68
2023/04/12 10:59:11;;;;;;;9.98;1.90;;;13.00;99.90;;;;;;5009162;28;20049;-68
2023/04/12 11:01:37;;;;;;;7.15;1.45;;;13.00;99.90;;;;;;5003095;28;20198;-68
2023/04/12 11:04:16;;;;;;;7.70;2.33;;;12.90;99.90;;;;;;4996279;28;20500;-68
2023/04/12 11:06:55;;;;;;;7.35;1.70;;;12.90;99.90;;;;;;4998574;28;20456;-68
2023/04/12 11:09:24;;;;;;;11.93;1.58;;;12.80;99.90;;;;;;4998050;28;20042;-68
2023/04/12 11:12:12;;;;;;;10.43;2.20;;;12.80;99.90;;;;;;4999970;28;20044;-68
2023/04/12 11:14:49;;;;;;;9.45;2.35;;;12.80;99.90;;;;;;4999111;28;20041;-70
2023/04/12 11:17:15;;;;;;;7.00;1.92;;;12.50;99.90;;;;;;5001842;28;20053;-68
2023/04/12 11:19:52;;;;;;;8.93;2.00;;;12.30;99.90;;;;;;5005293;28;20052;-68
2023/04/12 11:22:21;;;;;;;5.15;1.50;;;12.20;99.90;;;;;;5007896;28;20154;-68
2023/04/12 11:24:52;;;;;;;7.82;1.60;;;12.00;99.90;;;;;;5025459;28;20085;-68
2023/04/12 11:27:22;;;;;;;10.10;1.50;;;11.90;99.90;;;;;;5007494;28;20193;-68
2023/04/12 11:29:56;;;;;;;8.48;1.80;;;11.80;99.90;;;;;;4999227;28;20045;-68
2023/04/12 11:32:25;;;;;;;7.28;1.80;;;11.70;99.90;;;;;;5000790;28;20048;-68
2023/04/12 11:34:50;;;;;;;5.47;1.48;;;11.70;99.90;;;;;;5002362;28;20041;-68
2023/04/12 11:37:19;;;;;;;9.67;1.87;;;11.70;99.90;;;;;;5005978;28;20422;-68
2023/04/12 11:39:45;;;;;;;7.57;3.42;;;11.70;99.90;;;;;;5000731;28;20560;-69
2023/04/12 11:42:16;;;;;;;12.40;1.50;;;11.80;99.90;;;;;;5019281;28;20442;-68
2023/04/12 11:44:43;;;;;;;12.70;2.33;;;11.90;99.90;;;;;;4996633;28;20504;-68
2023/04/12 11:47:14;;;;;;;16.08;2.47;;;12.00;99.90;;;;;;5006122;28;20132;-68
2023/04/12 11:49:50;;;;;;;10.50;1.80;;;12.10;99.90;;;;;;5006547;28;20053;-68
2023/04/12 11:52:18;;;;;;;8.02;1.67;;;12.30;99.90;;;;;;4987889;28;20055;-68
2023/04/12 11:54:49;;;;;;;7.22;1.63;;;12.50;99.90;;;;;;5004284;28;20477;-68
2023/04/12 11:57:17;;;;;;;7.65;1.60;;;12.60;99.90;;;;;;5001861;28;20045;-68
2023/04/12 11:59:47;;;;;;;6.50;1.40;;;12.90;99.90;;;;;;5016312;28;20306;-68
2023/04/12 12:02:16;;;;;;;8.43;1.60;;;13.10;99.90;;;;;;5018923;28;20495;-68
2023/04/12 12:04:45;;;;;;;6.22;1.50;;;13.20;99.90;;;;;;4999411;28;20064;-68
2023/04/12 12:07:12;;;;;;;7.22;1.65;;;13.20;99.90;;;;;;5001066;28;20457;-67
2023/04/12 12:09:40;;;;;;;3.55;1.23;;;13.00;99.90;;;;;;5001636;28;20045;-68
2023/04/12 12:12:07;;;;;;;8.63;1.63;;;12.90;99.90;;;;;;5018909;28;20045;-68
2023/04/12 12:14:34;;;;;;;9.77;2.90;;;12.70;99.90;;;;;;4983018;28;20559;-68
2023/04/12 12:17:01;;;;;;;5.45;1.48;;;12.70;99.90;;;;;;5006519;28;20491;-68
2023/04/12 12:19:32;;;;;;;6.25;1.70;;;12.50;99.90;;;;;;5005509;28;20136;-69
2023/04/12 12:22:18;;;;;;;9.82;1.30;;;12.50;99.90;;;;;;5022927;28;20299;-69
2023/04/12 12:24:51;;;;;;;9.80;1.60;;;12.50;99.90;;;;;;5006297;28;20045;-68
2023/04/12 12:27:38;;;;;;;8.45;1.13;;;12.40;99.90;;;;;;4987859;28;20118;-68
2023/04/12 12:30:06;;;;;;;7.45;1.30;;;12.30;99.90;;;;;;4999460;28;20042;-68
2023/04/12 12:32:34;;;;;;;11.23;1.33;;;12.20;99.90;;;;;;4997542;28;20037;-68
2023/04/12 12:35:00;;;;;;;6.53;1.58;;;12.10;99.90;;;;;;4988334;28;20053;-69
2023/04/12 12:37:27;;;;;;;7.78;1.10;;;12.10;99.90;;;;;;5005375;28;20045;-69
2023/04/12 12:40:06;;;;;;;8.82;2.13;;;12.00;99.90;;;;;;5012718;28;20061;-68
2023/04/12 12:42:33;;;;;;;3.97;1.58;;;11.90;99.90;;;;;;5001965;28;20511;-68
2023/04/12 12:44:59;;;;;;;7.63;1.83;;;11.90;99.90;;;;;;5001959;28;20045;-69
2023/04/12 12:47:25;;;;;;;4.47;1.27;;;11.80;99.90;;;;;;4994464;28;20510;-69
2023/04/12 12:49:50;;;;;;;11.20;1.67;;;11.80;99.90;;;;;;4984288;28;20037;-69
2023/04/12 12:52:16;;;;;;;7.32;1.80;;;11.80;99.90;;;;;;5006110;28;20050;-69
2023/04/12 12:54:42;;;;;;;5.65;2.00;;;11.80;99.90;;;;;;4986780;28;20164;-69
2023/04/12 12:57:08;;;;;;;5.27;1.70;;;11.90;99.90;;;;;;4999021;28;20049;-68
2023/04/12 12:59:33;;;;;;;8.23;1.33;;;12.00;99.90;;;;;;5016301;28;20076;-69
2023/04/12 13:01:59;;;;;;;7.03;1.20;;;12.10;99.90;;;;;;5021370;28;20056;-69
2023/04/12 13:04:25;;;;;;;9.40;1.40;;;12.30;99.90;;;;;;4997297;28;20303;-68